sensor_id;sensor_type;location;lat;lon;timestamp;P1;durP1;ratioP1;P2;durP2;ratioP2
13335;SDS011;6737;51.480;11.962;2023-02-12T00:02:16;39.97;;;21.10;;
13335;SDS011;6737;51.480;11.962;2023-02-12T00:04:43;39.47;;;21.13;;
13335;SDS011;6737;51.480;11.962;2023-02-12T00:07:09;40.10;;;20.73;;
13335;SDS011;6737;51.480;11.962;2023-02-12T00:09:37;37.20;;;20.67;;
13335;SDS011;6737;51.480;11.962;2023-02-12T00:12:03;42.17;;;21.57;;
13335;SDS011;6737;51.480;11.962;2023-02-12T00:14:29;36.17;;;20.27;;
13335;SDS011;6737;51.480;11.962;2023-02-12T00:16:55;35.53;;;20.17;;
13335;SDS011;6737;51.480;11.962;2023-02-12T00:19:21;37.17;;;19.43;;
13335;SDS011;6737;51.480;11.962;2023-02-12T00:21:47;35.37;;;19.90;;
13335;SDS011;6737;51.480;11.962;2023-02-12T00:24:12;35.80;;;19.67;;
13335;SDS011;6737;51.480;11.962;2023-02-12T00:26:38;32.33;;;18.33;;
13335;SDS011;6737;51.480;11.962;2023-02-12T00:29:04;34.67;;;19.40;;
13335;SDS011;6737;51.480;11.962;2023-02-12T00:31:30;34.73;;;20.13;;
13335;SDS011;6737;51.480;11.962;2023-02-12T00:33:56;34.13;;;19.33;;
13335;SDS011;6737;51.480;11.962;2023-02-12T00:36:24;35.17;;;19.63;;
13335;SDS011;6737;51.480;11.962;2023-02-12T00:38:52;37.10;;;19.97;;
13335;SDS011;6737;51.480;11.962;2023-02-12T00:41:19;33.53;;;18.93;;
13335;SDS011;6737;51.480;11.962;2023-02-12T00:43:46;33.33;;;18.30;;
13335;SDS011;6737;51.480;11.962;2023-02-12T00:46:12;33.30;;;19.37;;
13335;SDS011;6737;51.480;11.962;2023-02-12T00:48:38;34.90;;;18.80;;
13335;SDS011;6737;51.480;11.962;2023-02-12T00:51:05;33.57;;;20.33;;
13335;SDS011;6737;51.480;11.962;2023-02-12T00:53:31;33.67;;;19.80;;
13335;SDS011;6737;51.480;11.962;2023-02-12T00:55:58;35.07;;;20.53;;
13335;SDS011;6737;51.480;11.962;2023-02-12T00:58:24;35.73;;;20.73;;
13335;SDS011;6737;51.480;11.962;2023-02-12T01:00:50;38.83;;;20.23;;
13335;SDS011;6737;51.480;11.962;2023-02-12T01:03:17;34.43;;;19.53;;
13335;SDS011;6737;51.480;11.962;2023-02-12T01:05:43;37.40;;;20.17;;
13335;SDS011;6737;51.480;11.962;2023-02-12T01:08:12;37.50;;;20.47;;
13335;SDS011;6737;51.480;11.962;2023-02-12T01:10:39;36.00;;;20.47;;
13335;SDS011;6737;51.480;11.962;2023-02-12T01:13:06;38.67;;;21.13;;
13335;SDS011;6737;51.480;11.962;2023-02-12T01:15:33;34.07;;;19.70;;
13335;SDS011;6737;51.480;11.962;2023-02-12T01:17:59;34.33;;;20.10;;
13335;SDS011;6737;51.480;11.962;2023-02-12T01:20:25;33.87;;;19.77;;
13335;SDS011;6737;51.480;11.962;2023-02-12T01:22:51;32.40;;;19.57;;
13335;SDS011;6737;51.480;11.962;2023-02-12T01:25:17;33.90;;;20.30;;
13335;SDS011;6737;51.480;11.962;2023-02-12T01:27:43;36.60;;;19.43;;
13335;SDS011;6737;51.480;11.962;2023-02-12T01:30:10;32.17;;;19.30;;
13335;SDS011;6737;51.480;11.962;2023-02-12T01:32:37;37.17;;;20.43;;
13335;SDS011;6737;51.480;11.962;2023-02-12T01:35:03;32.10;;;18.57;;
13335;SDS011;6737;51.480;11.962;2023-02-12T01:37:30;36.63;;;19.83;;
13335;SDS011;6737;51.480;11.962;2023-02-12T01:39:58;34.23;;;19.87;;
13335;SDS011;6737;51.480;11.962;2023-02-12T01:42:25;32.73;;;19.17;;
13335;SDS011;6737;51.480;11.962;2023-02-12T01:47:42;35.93;;;19.37;;
13335;SDS011;6737;51.480;11.962;2023-02-12T01:50:10;34.03;;;18.37;;
13335;SDS011;6737;51.480;11.962;2023-02-12T01:52:40;30.90;;;17.70;;
13335;SDS011;6737;51.480;11.962;2023-02-12T01:55:10;30.10;;;18.63;;
13335;SDS011;6737;51.480;11.962;2023-02-12T01:57:38;30.63;;;18.03;;
13335;SDS011;6737;51.480;11.962;2023-02-12T02:00:08;32.13;;;18.23;;
13335;SDS011;6737;51.480;11.962;2023-02-12T02:02:37;32.27;;;18.70;;
13335;SDS011;6737;51.480;11.962;2023-02-12T02:05:05;37.67;;;19.60;;
13335;SDS011;6737;51.480;11.962;2023-02-12T02:07:32;34.93;;;19.43;;
13335;SDS011;6737;51.480;11.962;2023-02-12T02:09:58;32.23;;;18.07;;
13335;SDS011;6737;51.480;11.962;2023-02-12T02:12:24;31.57;;;18.53;;
13335;SDS011;6737;51.480;11.962;2023-02-12T02:15:10;31.90;;;18.00;;
13335;SDS011;6737;51.480;11.962;2023-02-12T02:23:52;33.70;;;18.80;;
13335;SDS011;6737;51.480;11.962;2023-02-12T02:32:09;32.13;;;18.30;;
13335;SDS011;6737;51.480;11.962;2023-02-12T02:34:56;29.80;;;17.03;;
13335;SDS011;6737;51.480;11.962;2023-02-12T02:37:45;30.97;;;18.13;;
13335;SDS011;6737;51.480;11.962;2023-02-12T02:40:22;31.03;;;17.37;;
13335;SDS011;6737;51.480;11.962;2023-02-12T02:42:53;31.03;;;17.33;;
13335;SDS011;6737;51.480;11.962;2023-02-12T02:48:22;32.50;;;18.53;;
13335;SDS011;6737;51.480;11.962;2023-02-12T02:51:09;28.83;;;17.73;;
13335;SDS011;6737;51.480;11.962;2023-02-12T02:53:44;27.67;;;16.63;;
13335;SDS011;6737;51.480;11.962;2023-02-12T02:56:18;27.40;;;15.67;;
13335;SDS011;6737;51.480;11.962;2023-02-12T02:58:50;29.27;;;16.50;;
13335;SDS011;6737;51.480;11.962;2023-02-12T03:01:30;28.40;;;17.40;;
13335;SDS011;6737;51.480;11.962;2023-02-12T03:04:45;26.23;;;15.97;;
13335;SDS011;6737;51.480;11.962;2023-02-12T03:07:12;28.10;;;15.83;;
13335;SDS011;6737;51.480;11.962;2023-02-12T03:09:44;29.03;;;16.97;;
13335;SDS011;6737;51.480;11.962;2023-02-12T03:15:13;27.03;;;16.03;;
13335;SDS011;6737;51.480;11.962;2023-02-12T03:17:47;27.40;;;16.43;;
13335;SDS011;6737;51.480;11.962;2023-02-12T03:20:16;27.90;;;16.30;;
13335;SDS011;6737;51.480;11.962;2023-02-12T03:23:24;28.47;;;16.77;;
13335;SDS011;6737;51.480;11.962;2023-02-12T03:28:33;26.90;;;15.57;;
13335;SDS011;6737;51.480;11.962;2023-02-12T03:31:06;27.70;;;16.50;;
13335;SDS011;6737;51.480;11.962;2023-02-12T03:33:41;32.10;;;20.00;;
13335;SDS011;6737;51.480;11.962;2023-02-12T03:36:12;30.60;;;19.23;;
13335;SDS011;6737;51.480;11.962;2023-02-12T03:38:48;30.88;;;20.20;;
13335;SDS011;6737;51.480;11.962;2023-02-12T03:44:05;26.63;;;15.60;;
13335;SDS011;6737;51.480;11.962;2023-02-12T03:46:42;25.10;;;15.67;;
13335;SDS011;6737;51.480;11.962;2023-02-12T03:49:21;24.17;;;14.93;;
13335;SDS011;6737;51.480;11.962;2023-02-12T03:51:53;25.23;;;14.77;;
13335;SDS011;6737;51.480;11.962;2023-02-12T03:54:19;23.97;;;14.70;;
13335;SDS011;6737;51.480;11.962;2023-02-12T03:59:41;25.37;;;15.33;;
13335;SDS011;6737;51.480;11.962;2023-02-12T04:02:08;23.77;;;14.83;;
13335;SDS011;6737;51.480;11.962;2023-02-12T04:04:34;23.50;;;13.77;;
13335;SDS011;6737;51.480;11.962;2023-02-12T04:07:00;24.20;;;14.80;;
13335;SDS011;6737;51.480;11.962;2023-02-12T04:09:27;22.53;;;13.80;;
13335;SDS011;6737;51.480;11.962;2023-02-12T04:12:00;23.80;;;13.53;;
13335;SDS011;6737;51.480;11.962;2023-02-12T04:33:24;26.23;;;15.70;;
13335;SDS011;6737;51.480;11.962;2023-02-12T04:36:12;26.23;;;15.10;;
13335;SDS011;6737;51.480;11.962;2023-02-12T04:38:53;20.97;;;13.53;;
13335;SDS011;6737;51.480;11.962;2023-02-12T04:41:24;23.57;;;14.20;;
13335;SDS011;6737;51.480;11.962;2023-02-12T04:43:51;20.17;;;13.17;;
13335;SDS011;6737;51.480;11.962;2023-02-12T04:46:16;24.80;;;15.53;;
13335;SDS011;6737;51.480;11.962;2023-02-12T04:48:48;22.13;;;14.37;;
13335;SDS011;6737;51.480;11.962;2023-02-12T04:51:19;26.67;;;15.23;;
13335;SDS011;6737;51.480;11.962;2023-02-12T04:53:46;23.03;;;14.00;;
13335;SDS011;6737;51.480;11.962;2023-02-12T04:56:13;23.67;;;14.73;;
13335;SDS011;6737;51.480;11.962;2023-02-12T04:58:40;23.90;;;14.60;;
13335;SDS011;6737;51.480;11.962;2023-02-12T05:01:06;22.17;;;13.57;;
13335;SDS011;6737;51.480;11.962;2023-02-12T05:03:33;23.97;;;14.40;;
13335;SDS011;6737;51.480;11.962;2023-02-12T05:06:02;24.40;;;14.60;;
13335;SDS011;6737;51.480;11.962;2023-02-12T05:08:29;22.10;;;14.43;;
13335;SDS011;6737;51.480;11.962;2023-02-12T05:10:55;23.87;;;13.97;;
13335;SDS011;6737;51.480;11.962;2023-02-12T05:13:21;21.07;;;13.60;;
13335;SDS011;6737;51.480;11.962;2023-02-12T05:15:46;23.90;;;14.77;;
13335;SDS011;6737;51.480;11.962;2023-02-12T05:18:12;23.87;;;14.37;;
13335;SDS011;6737;51.480;11.962;2023-02-12T05:20:38;23.97;;;14.27;;
13335;SDS011;6737;51.480;11.962;2023-02-12T05:23:04;23.73;;;14.13;;
13335;SDS011;6737;51.480;11.962;2023-02-12T05:25:29;23.20;;;13.47;;
13335;SDS011;6737;51.480;11.962;2023-02-12T05:27:56;23.47;;;14.80;;
13335;SDS011;6737;51.480;11.962;2023-02-12T05:30:22;25.27;;;13.37;;
13335;SDS011;6737;51.480;11.962;2023-02-12T05:32:48;28.15;;;17.55;;
13335;SDS011;6737;51.480;11.962;2023-02-12T05:35:14;26.50;;;16.90;;
13335;SDS011;6737;51.480;11.962;2023-02-12T05:37:40;23.52;;;15.70;;
13335;SDS011;6737;51.480;11.962;2023-02-12T05:40:06;25.38;;;16.90;;
13335;SDS011;6737;51.480;11.962;2023-02-12T05:42:33;24.07;;;14.77;;
13335;SDS011;6737;51.480;11.962;2023-02-12T05:44:58;20.97;;;13.07;;
13335;SDS011;6737;51.480;11.962;2023-02-12T05:47:24;19.53;;;13.27;;
13335;SDS011;6737;51.480;11.962;2023-02-12T05:49:50;21.33;;;13.33;;
13335;SDS011;6737;51.480;11.962;2023-02-12T05:52:16;22.37;;;13.53;;
13335;SDS011;6737;51.480;11.962;2023-02-12T05:54:42;20.67;;;12.93;;
13335;SDS011;6737;51.480;11.962;2023-02-12T05:57:07;21.07;;;12.90;;
13335;SDS011;6737;51.480;11.962;2023-02-12T05:59:33;24.63;;;14.80;;
13335;SDS011;6737;51.480;11.962;2023-02-12T06:01:59;23.60;;;13.73;;
13335;SDS011;6737;51.480;11.962;2023-02-12T06:04:25;24.37;;;14.33;;
13335;SDS011;6737;51.480;11.962;2023-02-12T06:06:52;23.13;;;13.57;;
13335;SDS011;6737;51.480;11.962;2023-02-12T06:09:20;23.07;;;14.03;;
13335;SDS011;6737;51.480;11.962;2023-02-12T06:11:46;22.20;;;12.97;;
13335;SDS011;6737;51.480;11.962;2023-02-12T06:14:14;21.57;;;13.30;;
13335;SDS011;6737;51.480;11.962;2023-02-12T06:16:43;22.43;;;13.83;;
13335;SDS011;6737;51.480;11.962;2023-02-12T06:19:11;21.73;;;12.80;;
13335;SDS011;6737;51.480;11.962;2023-02-12T06:21:37;20.73;;;13.20;;
13335;SDS011;6737;51.480;11.962;2023-02-12T06:24:03;21.17;;;13.10;;
13335;SDS011;6737;51.480;11.962;2023-02-12T06:26:29;23.90;;;14.07;;
13335;SDS011;6737;51.480;11.962;2023-02-12T06:28:55;25.00;;;13.67;;
13335;SDS011;6737;51.480;11.962;2023-02-12T06:31:22;22.23;;;13.30;;
13335;SDS011;6737;51.480;11.962;2023-02-12T06:33:54;21.77;;;14.07;;
13335;SDS011;6737;51.480;11.962;2023-02-12T06:36:20;23.57;;;13.80;;
13335;SDS011;6737;51.480;11.962;2023-02-12T06:38:46;21.03;;;13.17;;
13335;SDS011;6737;51.480;11.962;2023-02-12T06:41:12;20.70;;;12.73;;
13335;SDS011;6737;51.480;11.962;2023-02-12T06:43:38;22.67;;;13.20;;
13335;SDS011;6737;51.480;11.962;2023-02-12T06:46:05;22.13;;;13.60;;
13335;SDS011;6737;51.480;11.962;2023-02-12T06:48:31;23.03;;;12.87;;
13335;SDS011;6737;51.480;11.962;2023-02-12T06:51:07;22.50;;;13.43;;
13335;SDS011;6737;51.480;11.962;2023-02-12T06:53:39;19.70;;;12.47;;
13335;SDS011;6737;51.480;11.962;2023-02-12T06:56:06;21.73;;;12.53;;
13335;SDS011;6737;51.480;11.962;2023-02-12T06:58:40;20.60;;;13.10;;
13335;SDS011;6737;51.480;11.962;2023-02-12T07:01:11;22.80;;;13.63;;
13335;SDS011;6737;51.480;11.962;2023-02-12T07:03:42;21.67;;;13.43;;
13335;SDS011;6737;51.480;11.962;2023-02-12T07:06:29;24.23;;;13.83;;
13335;SDS011;6737;51.480;11.962;2023-02-12T07:08:57;21.07;;;13.33;;
13335;SDS011;6737;51.480;11.962;2023-02-12T07:11:27;20.13;;;12.60;;
13335;SDS011;6737;51.480;11.962;2023-02-12T07:13:55;21.00;;;12.87;;
13335;SDS011;6737;51.480;11.962;2023-02-12T07:16:21;23.33;;;13.37;;
13335;SDS011;6737;51.480;11.962;2023-02-12T07:18:47;20.20;;;12.93;;
13335;SDS011;6737;51.480;11.962;2023-02-12T07:21:13;23.07;;;13.47;;
13335;SDS011;6737;51.480;11.962;2023-02-12T07:23:40;22.67;;;12.33;;
13335;SDS011;6737;51.480;11.962;2023-02-12T07:26:11;21.17;;;12.67;;
13335;SDS011;6737;51.480;11.962;2023-02-12T07:28:37;20.17;;;13.50;;
13335;SDS011;6737;51.480;11.962;2023-02-12T07:31:07;20.23;;;11.90;;
13335;SDS011;6737;51.480;11.962;2023-02-12T07:33:35;20.20;;;12.70;;
13335;SDS011;6737;51.480;11.962;2023-02-12T07:36:02;23.00;;;13.83;;
13335;SDS011;6737;51.480;11.962;2023-02-12T07:38:29;21.80;;;12.90;;
13335;SDS011;6737;51.480;11.962;2023-02-12T07:41:04;22.00;;;13.33;;
13335;SDS011;6737;51.480;11.962;2023-02-12T07:43:37;24.10;;;13.00;;
13335;SDS011;6737;51.480;11.962;2023-02-12T07:46:26;22.20;;;13.10;;
13335;SDS011;6737;51.480;11.962;2023-02-12T07:49:01;21.50;;;13.20;;
13335;SDS011;6737;51.480;11.962;2023-02-12T07:51:30;21.30;;;12.97;;
13335;SDS011;6737;51.480;11.962;2023-02-12T07:53:57;20.63;;;12.70;;
13335;SDS011;6737;51.480;11.962;2023-02-12T07:56:28;18.70;;;11.63;;
13335;SDS011;6737;51.480;11.962;2023-02-12T07:59:00;21.77;;;13.30;;
13335;SDS011;6737;51.480;11.962;2023-02-12T08:01:28;23.37;;;13.10;;
13335;SDS011;6737;51.480;11.962;2023-02-12T08:04:03;25.13;;;13.90;;
13335;SDS011;6737;51.480;11.962;2023-02-12T08:06:32;20.47;;;12.60;;
13335;SDS011;6737;51.480;11.962;2023-02-12T08:09:03;22.87;;;13.23;;
13335;SDS011;6737;51.480;11.962;2023-02-12T08:11:31;23.43;;;13.80;;
13335;SDS011;6737;51.480;11.962;2023-02-12T08:13:58;23.50;;;14.20;;
13335;SDS011;6737;51.480;11.962;2023-02-12T08:16:25;24.47;;;15.03;;
13335;SDS011;6737;51.480;11.962;2023-02-12T08:18:53;26.23;;;15.67;;
13335;SDS011;6737;51.480;11.962;2023-02-12T08:21:20;23.93;;;14.97;;
13335;SDS011;6737;51.480;11.962;2023-02-12T08:23:48;26.80;;;15.63;;
13335;SDS011;6737;51.480;11.962;2023-02-12T08:26:16;31.37;;;16.93;;
13335;SDS011;6737;51.480;11.962;2023-02-12T08:28:47;27.23;;;16.00;;
13335;SDS011;6737;51.480;11.962;2023-02-12T08:31:19;26.17;;;14.97;;
13335;SDS011;6737;51.480;11.962;2023-02-12T08:33:48;27.23;;;15.60;;
13335;SDS011;6737;51.480;11.962;2023-02-12T08:36:16;23.30;;;14.53;;
13335;SDS011;6737;51.480;11.962;2023-02-12T08:38:45;25.93;;;15.10;;
13335;SDS011;6737;51.480;11.962;2023-02-12T08:41:12;26.77;;;16.80;;
13335;SDS011;6737;51.480;11.962;2023-02-12T08:43:47;31.10;;;16.90;;
13335;SDS011;6737;51.480;11.962;2023-02-12T08:46:15;29.63;;;16.80;;
13335;SDS011;6737;51.480;11.962;2023-02-12T08:48:43;31.07;;;17.27;;
13335;SDS011;6737;51.480;11.962;2023-02-12T08:51:16;29.27;;;17.20;;
13335;SDS011;6737;51.480;11.962;2023-02-12T08:53:44;32.40;;;17.33;;
13335;SDS011;6737;51.480;11.962;2023-02-12T08:56:13;32.67;;;16.37;;
13335;SDS011;6737;51.480;11.962;2023-02-12T08:58:40;30.93;;;17.07;;
13335;SDS011;6737;51.480;11.962;2023-02-12T09:01:08;31.70;;;16.90;;
13335;SDS011;6737;51.480;11.962;2023-02-12T09:03:36;28.53;;;15.90;;
13335;SDS011;6737;51.480;11.962;2023-02-12T09:06:02;32.63;;;16.40;;
13335;SDS011;6737;51.480;11.962;2023-02-12T09:08:29;33.17;;;17.73;;
13335;SDS011;6737;51.480;11.962;2023-02-12T09:10:55;32.10;;;16.73;;
13335;SDS011;6737;51.480;11.962;2023-02-12T09:13:21;29.63;;;15.67;;
13335;SDS011;6737;51.480;11.962;2023-02-12T09:15:47;33.20;;;16.90;;
13335;SDS011;6737;51.480;11.962;2023-02-12T09:18:13;33.40;;;17.53;;
13335;SDS011;6737;51.480;11.962;2023-02-12T09:20:40;31.20;;;16.83;;
13335;SDS011;6737;51.480;11.962;2023-02-12T09:23:11;30.73;;;16.33;;
13335;SDS011;6737;51.480;11.962;2023-02-12T09:25:39;34.23;;;16.53;;
13335;SDS011;6737;51.480;11.962;2023-02-12T09:28:06;32.33;;;17.40;;
13335;SDS011;6737;51.480;11.962;2023-02-12T09:30:33;32.30;;;16.27;;
13335;SDS011;6737;51.480;11.962;2023-02-12T09:33:00;32.97;;;16.67;;
13335;SDS011;6737;51.480;11.962;2023-02-12T09:35:26;31.10;;;16.33;;
13335;SDS011;6737;51.480;11.962;2023-02-12T09:37:52;32.03;;;16.50;;
13335;SDS011;6737;51.480;11.962;2023-02-12T09:43:13;32.43;;;17.47;;
13335;SDS011;6737;51.480;11.962;2023-02-12T09:46:48;30.37;;;16.70;;
13335;SDS011;6737;51.480;11.962;2023-02-12T09:49:10;33.30;;;16.57;;
13335;SDS011;6737;51.480;11.962;2023-02-12T09:51:43;32.17;;;16.57;;
13335;SDS011;6737;51.480;11.962;2023-02-12T09:54:55;36.40;;;16.13;;
13335;SDS011;6737;51.480;11.962;2023-02-12T09:57:04;32.83;;;16.83;;
13335;SDS011;6737;51.480;11.962;2023-02-12T09:59:42;31.57;;;16.23;;
13335;SDS011;6737;51.480;11.962;2023-02-12T10:02:13;31.07;;;16.20;;
13335;SDS011;6737;51.480;11.962;2023-02-12T10:04:41;32.90;;;16.60;;
13335;SDS011;6737;51.480;11.962;2023-02-12T10:07:20;29.73;;;15.27;;
13335;SDS011;6737;51.480;11.962;2023-02-12T10:12:31;32.10;;;15.80;;
13335;SDS011;6737;51.480;11.962;2023-02-12T10:21:05;29.00;;;16.07;;
13335;SDS011;6737;51.480;11.962;2023-02-12T10:28:56;30.90;;;17.10;;
13335;SDS011;6737;51.480;11.962;2023-02-12T10:31:31;36.87;;;17.63;;
13335;SDS011;6737;51.480;11.962;2023-02-12T10:34:03;36.50;;;17.63;;
13335;SDS011;6737;51.480;11.962;2023-02-12T10:36:47;37.33;;;17.77;;
13335;SDS011;6737;51.480;11.962;2023-02-12T10:39:24;35.33;;;17.17;;
13335;SDS011;6737;51.480;11.962;2023-02-12T10:41:59;38.83;;;18.00;;
13335;SDS011;6737;51.480;11.962;2023-02-12T10:44:32;35.00;;;17.87;;
13335;SDS011;6737;51.480;11.962;2023-02-12T10:46:57;35.57;;;17.57;;
13335;SDS011;6737;51.480;11.962;2023-02-12T10:49:23;40.07;;;17.90;;
13335;SDS011;6737;51.480;11.962;2023-02-12T10:54:35;36.73;;;19.10;;
13335;SDS011;6737;51.480;11.962;2023-02-12T10:57:07;34.20;;;17.93;;
13335;SDS011;6737;51.480;11.962;2023-02-12T10:59:56;36.93;;;18.60;;
13335;SDS011;6737;51.480;11.962;2023-02-12T11:02:39;34.57;;;18.90;;
13335;SDS011;6737;51.480;11.962;2023-02-12T11:05:27;34.37;;;18.20;;
13335;SDS011;6737;51.480;11.962;2023-02-12T11:07:55;33.70;;;18.60;;
13335;SDS011;6737;51.480;11.962;2023-02-12T11:10:27;36.00;;;18.57;;
13335;SDS011;6737;51.480;11.962;2023-02-12T11:12:56;34.33;;;17.03;;
13335;SDS011;6737;51.480;11.962;2023-02-12T11:15:26;33.57;;;16.73;;
13335;SDS011;6737;51.480;11.962;2023-02-12T11:18:17;34.27;;;16.53;;
13335;SDS011;6737;51.480;11.962;2023-02-12T11:20:52;30.13;;;16.10;;
13335;SDS011;6737;51.480;11.962;2023-02-12T11:23:31;32.00;;;16.90;;
13335;SDS011;6737;51.480;11.962;2023-02-12T11:26:04;31.80;;;16.60;;
13335;SDS011;6737;51.480;11.962;2023-02-12T11:29:36;31.37;;;16.13;;
13335;SDS011;6737;51.480;11.962;2023-02-12T11:32:04;32.30;;;17.23;;
13335;SDS011;6737;51.480;11.962;2023-02-12T11:34:36;32.07;;;15.83;;
13335;SDS011;6737;51.480;11.962;2023-02-12T11:37:02;33.67;;;17.07;;
13335;SDS011;6737;51.480;11.962;2023-02-12T11:41:58;31.57;;;15.97;;
13335;SDS011;6737;51.480;11.962;2023-02-12T11:44:40;28.50;;;16.07;;
13335;SDS011;6737;51.480;11.962;2023-02-12T11:49:58;35.03;;;17.07;;
13335;SDS011;6737;51.480;11.962;2023-02-12T11:52:34;27.63;;;15.50;;
13335;SDS011;6737;51.480;11.962;2023-02-12T11:55:04;29.33;;;14.73;;
13335;SDS011;6737;51.480;11.962;2023-02-12T11:57:43;29.80;;;15.27;;
13335;SDS011;6737;51.480;11.962;2023-02-12T12:02:38;31.53;;;16.50;;
13335;SDS011;6737;51.480;11.962;2023-02-12T12:05:15;30.00;;;15.20;;
13335;SDS011;6737;51.480;11.962;2023-02-12T12:07:58;29.23;;;15.60;;
13335;SDS011;6737;51.480;11.962;2023-02-12T12:13:33;27.23;;;15.73;;
13335;SDS011;6737;51.480;11.962;2023-02-12T12:16:33;31.63;;;16.07;;
13335;SDS011;6737;51.480;11.962;2023-02-12T12:19:23;25.37;;;14.20;;
13335;SDS011;6737;51.480;11.962;2023-02-12T12:22:33;29.00;;;15.33;;
13335;SDS011;6737;51.480;11.962;2023-02-12T12:25:21;27.20;;;14.77;;
13335;SDS011;6737;51.480;11.962;2023-02-12T12:31:07;28.23;;;14.10;;
13335;SDS011;6737;51.480;11.962;2023-02-12T12:33:50;27.00;;;14.10;;
13335;SDS011;6737;51.480;11.962;2023-02-12T12:36:39;25.63;;;14.50;;
13335;SDS011;6737;51.480;11.962;2023-02-12T12:42:17;34.10;;;19.70;;
13335;SDS011;6737;51.480;11.962;2023-02-12T12:50:20;63.00;;;32.63;;
13335;SDS011;6737;51.480;11.962;2023-02-12T12:55:52;39.83;;;21.27;;
13335;SDS011;6737;51.480;11.962;2023-02-12T12:58:35;32.43;;;16.40;;
13335;SDS011;6737;51.480;11.962;2023-02-12T13:04:07;49.67;;;25.37;;
13335;SDS011;6737;51.480;11.962;2023-02-12T13:17:43;30.07;;;16.47;;
13335;SDS011;6737;51.480;11.962;2023-02-12T13:20:25;24.33;;;13.50;;
13335;SDS011;6737;51.480;11.962;2023-02-12T13:28:41;29.53;;;15.70;;
13335;SDS011;6737;51.480;11.962;2023-02-12T13:31:17;24.83;;;13.57;;
13335;SDS011;6737;51.480;11.962;2023-02-12T13:33:52;23.17;;;13.10;;
13335;SDS011;6737;51.480;11.962;2023-02-12T13:36:21;23.93;;;13.20;;
13335;SDS011;6737;51.480;11.962;2023-02-12T13:38:51;18.83;;;11.33;;
13335;SDS011;6737;51.480;11.962;2023-02-12T13:41:22;20.60;;;12.57;;
13335;SDS011;6737;51.480;11.962;2023-02-12T14:00:55;18.83;;;10.77;;
13335;SDS011;6737;51.480;11.962;2023-02-12T14:03:23;16.93;;;9.97;;
13335;SDS011;6737;51.480;11.962;2023-02-12T14:06:13;20.83;;;10.60;;
13335;SDS011;6737;51.480;11.962;2023-02-12T14:08:41;20.00;;;10.93;;
13335;SDS011;6737;51.480;11.962;2023-02-12T14:11:54;19.37;;;9.87;;
13335;SDS011;6737;51.480;11.962;2023-02-12T14:14:28;16.23;;;9.33;;
13335;SDS011;6737;51.480;11.962;2023-02-12T14:17:38;17.33;;;9.67;;
13335;SDS011;6737;51.480;11.962;2023-02-12T14:19:53;17.10;;;9.20;;
13335;SDS011;6737;51.480;11.962;2023-02-12T14:24:53;18.10;;;9.80;;
13335;SDS011;6737;51.480;11.962;2023-02-12T14:27:25;17.07;;;9.77;;
13335;SDS011;6737;51.480;11.962;2023-02-12T14:37:51;22.13;;;12.33;;
13335;SDS011;6737;51.480;11.962;2023-02-12T14:42:58;21.40;;;13.27;;
13335;SDS011;6737;51.480;11.962;2023-02-12T14:45:27;20.57;;;12.33;;
13335;SDS011;6737;51.480;11.962;2023-02-12T14:47:54;19.53;;;12.60;;
13335;SDS011;6737;51.480;11.962;2023-02-12T14:50:40;20.30;;;11.33;;
13335;SDS011;6737;51.480;11.962;2023-02-12T14:53:21;19.70;;;12.17;;
13335;SDS011;6737;51.480;11.962;2023-02-12T14:56:00;18.87;;;11.43;;
13335;SDS011;6737;51.480;11.962;2023-02-12T14:58:28;16.27;;;9.17;;
13335;SDS011;6737;51.480;11.962;2023-02-12T15:00:56;17.07;;;9.20;;
13335;SDS011;6737;51.480;11.962;2023-02-12T15:03:29;14.90;;;8.50;;
13335;SDS011;6737;51.480;11.962;2023-02-12T15:14:03;15.40;;;9.20;;
13335;SDS011;6737;51.480;11.962;2023-02-12T15:19:42;16.93;;;9.17;;
13335;SDS011;6737;51.480;11.962;2023-02-12T15:25:13;18.03;;;9.73;;
13335;SDS011;6737;51.480;11.962;2023-02-12T15:27:54;13.60;;;8.90;;
13335;SDS011;6737;51.480;11.962;2023-02-12T15:30:28;16.17;;;9.63;;
13335;SDS011;6737;51.480;11.962;2023-02-12T15:33:05;15.07;;;8.63;;
13335;SDS011;6737;51.480;11.962;2023-02-12T15:35:32;17.33;;;9.20;;
13335;SDS011;6737;51.480;11.962;2023-02-12T15:38:01;17.33;;;9.97;;
13335;SDS011;6737;51.480;11.962;2023-02-12T15:40:29;19.03;;;9.53;;
13335;SDS011;6737;51.480;11.962;2023-02-12T15:45:29;14.30;;;8.70;;
13335;SDS011;6737;51.480;11.962;2023-02-12T15:50:34;18.38;;;10.93;;
13335;SDS011;6737;51.480;11.962;2023-02-12T15:53:10;17.10;;;10.60;;
13335;SDS011;6737;51.480;11.962;2023-02-12T15:55:38;19.23;;;11.82;;
13335;SDS011;6737;51.480;11.962;2023-02-12T15:58:17;14.23;;;9.00;;
13335;SDS011;6737;51.480;11.962;2023-02-12T16:00:49;17.00;;;8.97;;
13335;SDS011;6737;51.480;11.962;2023-02-12T16:03:29;17.73;;;9.03;;
13335;SDS011;6737;51.480;11.962;2023-02-12T16:06:03;15.23;;;9.00;;
13335;SDS011;6737;51.480;11.962;2023-02-12T16:08:37;16.73;;;9.70;;
13335;SDS011;6737;51.480;11.962;2023-02-12T16:11:08;15.33;;;8.60;;
13335;SDS011;6737;51.480;11.962;2023-02-12T16:13:46;14.60;;;8.73;;
13335;SDS011;6737;51.480;11.962;2023-02-12T16:18:45;17.83;;;9.93;;
13335;SDS011;6737;51.480;11.962;2023-02-12T16:21:27;16.37;;;8.73;;
13335;SDS011;6737;51.480;11.962;2023-02-12T16:23:53;20.53;;;11.67;;
13335;SDS011;6737;51.480;11.962;2023-02-12T16:26:20;20.27;;;10.77;;
13335;SDS011;6737;51.480;11.962;2023-02-12T16:28:54;18.07;;;10.27;;
13335;SDS011;6737;51.480;11.962;2023-02-12T16:31:22;18.47;;;10.13;;
13335;SDS011;6737;51.480;11.962;2023-02-12T16:33:52;18.87;;;10.43;;
13335;SDS011;6737;51.480;11.962;2023-02-12T16:38:48;16.67;;;9.27;;
13335;SDS011;6737;51.480;11.962;2023-02-12T16:46:25;16.77;;;9.60;;
13335;SDS011;6737;51.480;11.962;2023-02-12T16:48:55;19.40;;;9.80;;
13335;SDS011;6737;51.480;11.962;2023-02-12T16:51:24;16.93;;;9.90;;
13335;SDS011;6737;51.480;11.962;2023-02-12T16:53:50;14.67;;;9.10;;
13335;SDS011;6737;51.480;11.962;2023-02-12T16:56:18;17.37;;;9.53;;
13335;SDS011;6737;51.480;11.962;2023-02-12T16:58:48;17.60;;;10.10;;
13335;SDS011;6737;51.480;11.962;2023-02-12T17:01:16;18.93;;;11.10;;
13335;SDS011;6737;51.480;11.962;2023-02-12T17:03:45;21.93;;;12.80;;
13335;SDS011;6737;51.480;11.962;2023-02-12T17:06:15;19.23;;;10.83;;
13335;SDS011;6737;51.480;11.962;2023-02-12T17:08:41;24.27;;;13.33;;
13335;SDS011;6737;51.480;11.962;2023-02-12T17:11:07;22.60;;;11.60;;
13335;SDS011;6737;51.480;11.962;2023-02-12T17:13:33;20.40;;;11.00;;
13335;SDS011;6737;51.480;11.962;2023-02-12T17:15:59;19.90;;;11.77;;
13335;SDS011;6737;51.480;11.962;2023-02-12T17:18:25;20.20;;;11.63;;
13335;SDS011;6737;51.480;11.962;2023-02-12T17:20:59;18.33;;;11.33;;
13335;SDS011;6737;51.480;11.962;2023-02-12T17:23:30;19.70;;;10.80;;
13335;SDS011;6737;51.480;11.962;2023-02-12T17:25:56;20.27;;;12.43;;
13335;SDS011;6737;51.480;11.962;2023-02-12T17:28:22;24.37;;;14.13;;
13335;SDS011;6737;51.480;11.962;2023-02-12T17:30:49;25.80;;;15.07;;
13335;SDS011;6737;51.480;11.962;2023-02-12T17:33:17;29.20;;;15.60;;
13335;SDS011;6737;51.480;11.962;2023-02-12T17:35:44;22.10;;;12.90;;
13335;SDS011;6737;51.480;11.962;2023-02-12T17:38:10;26.43;;;14.50;;
13335;SDS011;6737;51.480;11.962;2023-02-12T17:40:36;27.87;;;15.70;;